sensor_id;sensor_type;location;lat;lon;timestamp;P1;durP1;ratioP1;P2;durP2;ratioP2
65477;SDS011;53678;39.642;22.430;2023-02-28T00:01:07;54.95;;;13.05;;
65477;SDS011;53678;39.642;22.430;2023-02-28T00:03:33;75.60;;;14.35;;
65477;SDS011;53678;39.642;22.430;2023-02-28T00:06:03;57.92;;;12.65;;
65477;SDS011;53678;39.642;22.430;2023-02-28T00:08:29;49.85;;;11.52;;
65477;SDS011;53678;39.642;22.430;2023-02-28T00:10:55;45.15;;;12.02;;
65477;SDS011;53678;39.642;22.430;2023-02-28T00:13:21;56.78;;;11.48;;
65477;SDS011;53678;39.642;22.430;2023-02-28T00:15:47;62.17;;;13.65;;
65477;SDS011;53678;39.642;22.430;2023-02-28T00:18:12;47.70;;;12.52;;
65477;SDS011;53678;39.642;22.430;2023-02-28T00:20:38;65.07;;;10.45;;
65477;SDS011;53678;39.642;22.430;2023-02-28T00:23:04;68.75;;;12.52;;
65477;SDS011;53678;39.642;22.430;2023-02-28T00:25:30;58.40;;;10.85;;
65477;SDS011;53678;39.642;22.430;2023-02-28T00:27:56;51.42;;;10.65;;
65477;SDS011;53678;39.642;22.430;2023-02-28T00:30:22;52.60;;;10.98;;
65477;SDS011;53678;39.642;22.430;2023-02-28T00:32:48;47.22;;;9.50;;
65477;SDS011;53678;39.642;22.430;2023-02-28T00:35:15;54.45;;;9.82;;
65477;SDS011;53678;39.642;22.430;2023-02-28T00:37:41;37.42;;;8.88;;
65477;SDS011;53678;39.642;22.430;2023-02-28T00:40:07;58.28;;;10.85;;
65477;SDS011;53678;39.642;22.430;2023-02-28T00:42:34;52.38;;;9.23;;
65477;SDS011;53678;39.642;22.430;2023-02-28T00:45:00;37.50;;;9.02;;
65477;SDS011;53678;39.642;22.430;2023-02-28T00:47:26;62.55;;;9.48;;
65477;SDS011;53678;39.642;22.430;2023-02-28T00:49:52;53.25;;;9.48;;
65477;SDS011;53678;39.642;22.430;2023-02-28T00:52:17;45.92;;;8.23;;
65477;SDS011;53678;39.642;22.430;2023-02-28T00:54:43;50.05;;;9.10;;
65477;SDS011;53678;39.642;22.430;2023-02-28T00:57:09;49.25;;;8.75;;
65477;SDS011;53678;39.642;22.430;2023-02-28T00:59:35;51.53;;;8.90;;
65477;SDS011;53678;39.642;22.430;2023-02-28T01:02:00;58.20;;;9.85;;
65477;SDS011;53678;39.642;22.430;2023-02-28T01:04:26;53.47;;;9.75;;
65477;SDS011;53678;39.642;22.430;2023-02-28T01:06:52;66.00;;;11.10;;
65477;SDS011;53678;39.642;22.430;2023-02-28T01:09:18;49.17;;;9.48;;
65477;SDS011;53678;39.642;22.430;2023-02-28T01:11:43;52.97;;;9.68;;
65477;SDS011;53678;39.642;22.430;2023-02-28T01:14:13;59.65;;;10.68;;
65477;SDS011;53678;39.642;22.430;2023-02-28T01:16:40;68.47;;;11.40;;
65477;SDS011;53678;39.642;22.430;2023-02-28T01:19:06;60.35;;;11.50;;
65477;SDS011;53678;39.642;22.430;2023-02-28T01:21:31;64.30;;;11.75;;
65477;SDS011;53678;39.642;22.430;2023-02-28T01:23:57;65.43;;;11.40;;
65477;SDS011;53678;39.642;22.430;2023-02-28T01:26:23;58.47;;;11.07;;
65477;SDS011;53678;39.642;22.430;2023-02-28T01:28:50;68.60;;;13.00;;
65477;SDS011;53678;39.642;22.430;2023-02-28T01:31:17;57.50;;;13.27;;
65477;SDS011;53678;39.642;22.430;2023-02-28T01:33:44;69.30;;;13.98;;
65477;SDS011;53678;39.642;22.430;2023-02-28T01:36:14;82.53;;;14.98;;
65477;SDS011;53678;39.642;22.430;2023-02-28T01:38:42;74.97;;;15.52;;
65477;SDS011;53678;39.642;22.430;2023-02-28T01:41:09;64.38;;;17.67;;
65477;SDS011;53678;39.642;22.430;2023-02-28T01:46:11;68.63;;;15.15;;
65477;SDS011;53678;39.642;22.430;2023-02-28T01:48:39;70.18;;;14.15;;
65477;SDS011;53678;39.642;22.430;2023-02-28T01:51:13;77.65;;;15.50;;
65477;SDS011;53678;39.642;22.430;2023-02-28T01:53:46;72.38;;;14.93;;
65477;SDS011;53678;39.642;22.430;2023-02-28T01:56:16;70.85;;;14.38;;
65477;SDS011;53678;39.642;22.430;2023-02-28T01:58:48;58.42;;;14.38;;
65477;SDS011;53678;39.642;22.430;2023-02-28T02:01:16;68.03;;;14.70;;
65477;SDS011;53678;39.642;22.430;2023-02-28T02:03:50;69.93;;;14.23;;
65477;SDS011;53678;39.642;22.430;2023-02-28T02:06:40;60.33;;;13.65;;
65477;SDS011;53678;39.642;22.430;2023-02-28T02:09:09;62.22;;;13.25;;
65477;SDS011;53678;39.642;22.430;2023-02-28T02:11:36;48.45;;;12.32;;
65477;SDS011;53678;39.642;22.430;2023-02-28T02:14:10;45.00;;;13.50;;
65477;SDS011;53678;39.642;22.430;2023-02-28T02:25:16;54.03;;;12.85;;
65477;SDS011;53678;39.642;22.430;2023-02-28T02:39:04;60.40;;;12.63;;
65477;SDS011;53678;39.642;22.430;2023-02-28T02:41:47;57.22;;;12.43;;
65477;SDS011;53678;39.642;22.430;2023-02-28T02:47:10;55.05;;;12.75;;
65477;SDS011;53678;39.642;22.430;2023-02-28T02:49:47;52.50;;;13.18;;
65477;SDS011;53678;39.642;22.430;2023-02-28T02:52:16;52.42;;;12.57;;
65477;SDS011;53678;39.642;22.430;2023-02-28T02:54:47;65.68;;;13.23;;
65477;SDS011;53678;39.642;22.430;2023-02-28T02:57:23;57.25;;;14.65;;
65477;SDS011;53678;39.642;22.430;2023-02-28T02:59:55;55.47;;;12.52;;
65477;SDS011;53678;39.642;22.430;2023-02-28T03:02:22;47.70;;;11.73;;
65477;SDS011;53678;39.642;22.430;2023-02-28T03:04:51;44.05;;;12.15;;
65477;SDS011;53678;39.642;22.430;2023-02-28T03:07:20;55.92;;;14.50;;
65477;SDS011;53678;39.642;22.430;2023-02-28T03:09:50;57.05;;;11.98;;
65477;SDS011;53678;39.642;22.430;2023-02-28T03:12:18;61.58;;;13.65;;
65477;SDS011;53678;39.642;22.430;2023-02-28T03:17:53;50.92;;;11.45;;
65477;SDS011;53678;39.642;22.430;2023-02-28T03:20:33;57.90;;;11.80;;
65477;SDS011;53678;39.642;22.430;2023-02-28T03:28:31;56.50;;;12.02;;
65477;SDS011;53678;39.642;22.430;2023-02-28T03:31:18;65.18;;;13.80;;
65477;SDS011;53678;39.642;22.430;2023-02-28T03:33:55;53.25;;;12.18;;
65477;SDS011;53678;39.642;22.430;2023-02-28T03:36:29;62.60;;;13.27;;
65477;SDS011;53678;39.642;22.430;2023-02-28T03:39:04;58.92;;;12.27;;
65477;SDS011;53678;39.642;22.430;2023-02-28T03:41:38;51.72;;;12.07;;
65477;SDS011;53678;39.642;22.430;2023-02-28T03:44:23;50.65;;;10.88;;
65477;SDS011;53678;39.642;22.430;2023-02-28T03:46:56;48.28;;;11.48;;
65477;SDS011;53678;39.642;22.430;2023-02-28T03:49:30;54.50;;;11.82;;
65477;SDS011;53678;39.642;22.430;2023-02-28T03:52:00;54.83;;;10.32;;
65477;SDS011;53678;39.642;22.430;2023-02-28T03:54:32;54.47;;;11.35;;
65477;SDS011;53678;39.642;22.430;2023-02-28T03:57:08;52.97;;;10.93;;
65477;SDS011;53678;39.642;22.430;2023-02-28T03:59:43;63.30;;;11.68;;
65477;SDS011;53678;39.642;22.430;2023-02-28T04:02:12;52.42;;;12.00;;
65477;SDS011;53678;39.642;22.430;2023-02-28T04:04:38;64.85;;;11.57;;
65477;SDS011;53678;39.642;22.430;2023-02-28T04:07:10;71.05;;;11.80;;
65477;SDS011;53678;39.642;22.430;2023-02-28T04:09:36;64.78;;;12.98;;
65477;SDS011;53678;39.642;22.430;2023-02-28T04:12:02;50.20;;;10.85;;
65477;SDS011;53678;39.642;22.430;2023-02-28T04:14:28;60.38;;;10.23;;
65477;SDS011;53678;39.642;22.430;2023-02-28T04:16:55;58.15;;;11.15;;
65477;SDS011;53678;39.642;22.430;2023-02-28T04:19:20;66.38;;;11.18;;
65477;SDS011;53678;39.642;22.430;2023-02-28T04:21:50;72.38;;;10.32;;
65477;SDS011;53678;39.642;22.430;2023-02-28T04:24:18;87.63;;;11.13;;
65477;SDS011;53678;39.642;22.430;2023-02-28T04:26:46;56.65;;;9.90;;
65477;SDS011;53678;39.642;22.430;2023-02-28T04:29:18;49.47;;;9.70;;
65477;SDS011;53678;39.642;22.430;2023-02-28T04:31:46;75.30;;;10.77;;
65477;SDS011;53678;39.642;22.430;2023-02-28T04:34:11;41.13;;;10.77;;
65477;SDS011;53678;39.642;22.430;2023-02-28T04:36:37;60.30;;;10.77;;
65477;SDS011;53678;39.642;22.430;2023-02-28T04:39:03;50.22;;;10.25;;
65477;SDS011;53678;39.642;22.430;2023-02-28T04:41:29;45.38;;;9.65;;
65477;SDS011;53678;39.642;22.430;2023-02-28T04:43:55;40.60;;;9.75;;
65477;SDS011;53678;39.642;22.430;2023-02-28T04:46:21;38.15;;;9.55;;
65477;SDS011;53678;39.642;22.430;2023-02-28T04:48:47;57.75;;;9.77;;
65477;SDS011;53678;39.642;22.430;2023-02-28T04:51:15;53.88;;;10.07;;
65477;SDS011;53678;39.642;22.430;2023-02-28T04:53:42;53.70;;;8.48;;
65477;SDS011;53678;39.642;22.430;2023-02-28T04:56:10;47.33;;;9.35;;
65477;SDS011;53678;39.642;22.430;2023-02-28T04:58:37;39.55;;;8.00;;
65477;SDS011;53678;39.642;22.430;2023-02-28T05:04:00;40.30;;;7.30;;
65477;SDS011;53678;39.642;22.430;2023-02-28T05:06:27;51.05;;;8.25;;
65477;SDS011;53678;39.642;22.430;2023-02-28T05:08:55;42.78;;;8.00;;
65477;SDS011;53678;39.642;22.430;2023-02-28T05:13:49;53.90;;;8.40;;
65477;SDS011;53678;39.642;22.430;2023-02-28T05:16:16;38.08;;;7.95;;
65477;SDS011;53678;39.642;22.430;2023-02-28T05:18:42;54.35;;;8.80;;
65477;SDS011;53678;39.642;22.430;2023-02-28T05:21:22;42.08;;;9.95;;
65477;SDS011;53678;39.642;22.430;2023-02-28T05:24:06;35.13;;;8.50;;
65477;SDS011;53678;39.642;22.430;2023-02-28T05:26:36;44.95;;;11.63;;
65477;SDS011;53678;39.642;22.430;2023-02-28T05:29:03;53.70;;;11.05;;
65477;SDS011;53678;39.642;22.430;2023-02-28T05:31:30;53.78;;;9.27;;
65477;SDS011;53678;39.642;22.430;2023-02-28T05:33:56;44.92;;;9.50;;
65477;SDS011;53678;39.642;22.430;2023-02-28T05:36:22;43.50;;;8.82;;
65477;SDS011;53678;39.642;22.430;2023-02-28T05:38:49;58.65;;;10.90;;
65477;SDS011;53678;39.642;22.430;2023-02-28T05:41:16;51.72;;;9.73;;
65477;SDS011;53678;39.642;22.430;2023-02-28T05:43:42;52.95;;;9.70;;
65477;SDS011;53678;39.642;22.430;2023-02-28T05:46:09;61.33;;;10.52;;
65477;SDS011;53678;39.642;22.430;2023-02-28T05:48:38;48.40;;;9.85;;
65477;SDS011;53678;39.642;22.430;2023-02-28T05:51:05;77.85;;;12.50;;
65477;SDS011;53678;39.642;22.430;2023-02-28T05:53:32;55.55;;;10.10;;
65477;SDS011;53678;39.642;22.430;2023-02-28T05:55:59;53.60;;;9.73;;
65477;SDS011;53678;39.642;22.430;2023-02-28T05:58:25;46.92;;;7.85;;
65477;SDS011;53678;39.642;22.430;2023-02-28T06:00:54;38.53;;;9.40;;
65477;SDS011;53678;39.642;22.430;2023-02-28T06:03:20;74.45;;;11.32;;
65477;SDS011;53678;39.642;22.430;2023-02-28T06:05:45;48.25;;;8.20;;
65477;SDS011;53678;39.642;22.430;2023-02-28T06:08:11;45.95;;;9.15;;
65477;SDS011;53678;39.642;22.430;2023-02-28T06:10:37;60.78;;;10.02;;
65477;SDS011;53678;39.642;22.430;2023-02-28T06:13:03;44.88;;;11.65;;
65477;SDS011;53678;39.642;22.430;2023-02-28T06:15:29;48.22;;;8.95;;
65477;SDS011;53678;39.642;22.430;2023-02-28T06:17:56;62.30;;;10.52;;
65477;SDS011;53678;39.642;22.430;2023-02-28T06:20:23;56.10;;;9.40;;
65477;SDS011;53678;39.642;22.430;2023-02-28T06:22:49;50.78;;;9.93;;
65477;SDS011;53678;39.642;22.430;2023-02-28T06:25:16;34.05;;;10.15;;
65477;SDS011;53678;39.642;22.430;2023-02-28T06:27:42;55.50;;;10.57;;
65477;SDS011;53678;39.642;22.430;2023-02-28T06:30:09;50.83;;;11.18;;
65477;SDS011;53678;39.642;22.430;2023-02-28T06:32:35;52.50;;;10.25;;
65477;SDS011;53678;39.642;22.430;2023-02-28T06:35:01;49.92;;;10.00;;
65477;SDS011;53678;39.642;22.430;2023-02-28T06:37:28;55.30;;;11.57;;
65477;SDS011;53678;39.642;22.430;2023-02-28T06:39:55;52.95;;;11.20;;
65477;SDS011;53678;39.642;22.430;2023-02-28T06:42:24;65.55;;;13.82;;
65477;SDS011;53678;39.642;22.430;2023-02-28T06:44:57;47.92;;;11.07;;
65477;SDS011;53678;39.642;22.430;2023-02-28T06:47:23;45.53;;;9.15;;
65477;SDS011;53678;39.642;22.430;2023-02-28T06:49:49;53.03;;;9.38;;
65477;SDS011;53678;39.642;22.430;2023-02-28T06:52:15;40.25;;;9.32;;
65477;SDS011;53678;39.642;22.430;2023-02-28T06:54:41;54.55;;;12.00;;
65477;SDS011;53678;39.642;22.430;2023-02-28T06:57:07;49.90;;;10.15;;
65477;SDS011;53678;39.642;22.430;2023-02-28T06:59:33;49.20;;;10.13;;
65477;SDS011;53678;39.642;22.430;2023-02-28T07:02:00;42.97;;;9.63;;
65477;SDS011;53678;39.642;22.430;2023-02-28T07:04:27;49.08;;;10.32;;
65477;SDS011;53678;39.642;22.430;2023-02-28T07:06:54;43.10;;;8.75;;
65477;SDS011;53678;39.642;22.430;2023-02-28T07:09:22;60.70;;;12.45;;
65477;SDS011;53678;39.642;22.430;2023-02-28T07:11:48;40.95;;;11.40;;
65477;SDS011;53678;39.642;22.430;2023-02-28T07:14:14;50.67;;;9.10;;
65477;SDS011;53678;39.642;22.430;2023-02-28T07:16:39;41.83;;;9.57;;
65477;SDS011;53678;39.642;22.430;2023-02-28T07:19:05;59.90;;;10.38;;
65477;SDS011;53678;39.642;22.430;2023-02-28T07:21:31;57.13;;;10.73;;
65477;SDS011;53678;39.642;22.430;2023-02-28T07:23:58;64.13;;;10.55;;
65477;SDS011;53678;39.642;22.430;2023-02-28T07:26:23;49.33;;;9.65;;
65477;SDS011;53678;39.642;22.430;2023-02-28T07:28:49;51.38;;;10.80;;
65477;SDS011;53678;39.642;22.430;2023-02-28T07:31:15;42.85;;;9.27;;
65477;SDS011;53678;39.642;22.430;2023-02-28T07:33:41;53.40;;;10.98;;
65477;SDS011;53678;39.642;22.430;2023-02-28T07:36:08;52.97;;;12.02;;
65477;SDS011;53678;39.642;22.430;2023-02-28T07:38:41;42.80;;;12.45;;
65477;SDS011;53678;39.642;22.430;2023-02-28T07:41:08;43.85;;;10.40;;
65477;SDS011;53678;39.642;22.430;2023-02-28T07:43:34;56.05;;;11.80;;
65477;SDS011;53678;39.642;22.430;2023-02-28T07:46:01;42.90;;;10.13;;
65477;SDS011;53678;39.642;22.430;2023-02-28T07:48:34;49.13;;;11.05;;
65477;SDS011;53678;39.642;22.430;2023-02-28T07:51:00;43.95;;;9.50;;
65477;SDS011;53678;39.642;22.430;2023-02-28T07:53:28;39.38;;;10.18;;
65477;SDS011;53678;39.642;22.430;2023-02-28T07:55:55;48.20;;;12.45;;
65477;SDS011;53678;39.642;22.430;2023-02-28T07:58:22;63.95;;;13.63;;
65477;SDS011;53678;39.642;22.430;2023-02-28T08:00:49;64.80;;;14.93;;
65477;SDS011;53678;39.642;22.430;2023-02-28T08:03:14;61.38;;;15.23;;
65477;SDS011;53678;39.642;22.430;2023-02-28T08:05:41;62.95;;;15.45;;
65477;SDS011;53678;39.642;22.430;2023-02-28T08:08:07;50.90;;;14.00;;
65477;SDS011;53678;39.642;22.430;2023-02-28T08:10:33;60.60;;;14.02;;
65477;SDS011;53678;39.642;22.430;2023-02-28T08:12:59;46.28;;;12.85;;
65477;SDS011;53678;39.642;22.430;2023-02-28T08:15:25;46.92;;;12.52;;
65477;SDS011;53678;39.642;22.430;2023-02-28T08:17:51;47.80;;;12.55;;
65477;SDS011;53678;39.642;22.430;2023-02-28T08:20:17;51.35;;;12.15;;
65477;SDS011;53678;39.642;22.430;2023-02-28T08:22:42;38.78;;;12.15;;
65477;SDS011;53678;39.642;22.430;2023-02-28T08:25:08;57.50;;;12.38;;
65477;SDS011;53678;39.642;22.430;2023-02-28T08:27:35;49.55;;;13.48;;
65477;SDS011;53678;39.642;22.430;2023-02-28T08:30:01;56.40;;;12.75;;
65477;SDS011;53678;39.642;22.430;2023-02-28T08:32:28;47.38;;;10.52;;
65477;SDS011;53678;39.642;22.430;2023-02-28T08:34:55;45.72;;;11.40;;
65477;SDS011;53678;39.642;22.430;2023-02-28T08:37:21;48.45;;;10.98;;
65477;SDS011;53678;39.642;22.430;2023-02-28T08:39:47;60.22;;;12.27;;
65477;SDS011;53678;39.642;22.430;2023-02-28T08:42:13;42.88;;;10.68;;
65477;SDS011;53678;39.642;22.430;2023-02-28T08:44:38;55.63;;;14.20;;
65477;SDS011;53678;39.642;22.430;2023-02-28T08:47:05;60.28;;;16.70;;
65477;SDS011;53678;39.642;22.430;2023-02-28T08:49:31;65.30;;;20.15;;
65477;SDS011;53678;39.642;22.430;2023-02-28T08:51:57;60.33;;;20.35;;
65477;SDS011;53678;39.642;22.430;2023-02-28T08:54:23;80.25;;;23.05;;
65477;SDS011;53678;39.642;22.430;2023-02-28T08:56:49;63.25;;;23.63;;
65477;SDS011;53678;39.642;22.430;2023-02-28T08:59:15;63.28;;;22.02;;
65477;SDS011;53678;39.642;22.430;2023-02-28T09:01:41;66.63;;;24.38;;
65477;SDS011;53678;39.642;22.430;2023-02-28T09:04:08;65.00;;;20.48;;
65477;SDS011;53678;39.642;22.430;2023-02-28T09:06:36;58.13;;;22.23;;
65477;SDS011;53678;39.642;22.430;2023-02-28T09:09:02;74.32;;;25.67;;
65477;SDS011;53678;39.642;22.430;2023-02-28T09:11:31;63.38;;;23.60;;
65477;SDS011;53678;39.642;22.430;2023-02-28T09:13:57;70.75;;;24.70;;
65477;SDS011;53678;39.642;22.430;2023-02-28T09:16:25;65.10;;;23.23;;
65477;SDS011;53678;39.642;22.430;2023-02-28T09:18:51;67.97;;;19.40;;
65477;SDS011;53678;39.642;22.430;2023-02-28T09:21:18;63.03;;;18.98;;
65477;SDS011;53678;39.642;22.430;2023-02-28T09:23:45;57.80;;;18.20;;
65477;SDS011;53678;39.642;22.430;2023-02-28T09:26:16;68.53;;;17.20;;
65477;SDS011;53678;39.642;22.430;2023-02-28T09:28:44;58.83;;;16.63;;
65477;SDS011;53678;39.642;22.430;2023-02-28T09:31:14;82.78;;;22.42;;
65477;SDS011;53678;39.642;22.430;2023-02-28T09:33:46;51.05;;;18.17;;
65477;SDS011;53678;39.642;22.430;2023-02-28T09:36:14;79.63;;;20.90;;
65477;SDS011;53678;39.642;22.430;2023-02-28T09:38:40;67.03;;;22.75;;
65477;SDS011;53678;39.642;22.430;2023-02-28T09:41:13;59.58;;;23.30;;
65477;SDS011;53678;39.642;22.430;2023-02-28T09:43:43;63.65;;;21.90;;
65477;SDS011;53678;39.642;22.430;2023-02-28T09:48:56;66.68;;;22.55;;
65477;SDS011;53678;39.642;22.430;2023-02-28T09:51:37;58.47;;;22.42;;
65477;SDS011;53678;39.642;22.430;2023-02-28T09:54:15;68.25;;;22.35;;
65477;SDS011;53678;39.642;22.430;2023-02-28T09:56:45;82.43;;;22.05;;
65477;SDS011;53678;39.642;22.430;2023-02-28T10:02:34;63.33;;;21.05;;
65477;SDS011;53678;39.642;22.430;2023-02-28T10:04:47;72.28;;;20.10;;
65477;SDS011;53678;39.642;22.430;2023-02-28T10:07:23;64.97;;;19.52;;
65477;SDS011;53678;39.642;22.430;2023-02-28T10:12:48;51.20;;;17.55;;
65477;SDS011;53678;39.642;22.430;2023-02-28T10:15:18;55.63;;;16.23;;
65477;SDS011;53678;39.642;22.430;2023-02-28T10:17:54;44.90;;;14.88;;
65477;SDS011;53678;39.642;22.430;2023-02-28T10:20:23;63.38;;;13.93;;
65477;SDS011;53678;39.642;22.430;2023-02-28T10:25:37;58.30;;;13.15;;
65477;SDS011;53678;39.642;22.430;2023-02-28T10:28:11;58.97;;;14.45;;
65477;SDS011;53678;39.642;22.430;2023-02-28T10:30:39;58.92;;;14.57;;
65477;SDS011;53678;39.642;22.430;2023-02-28T10:33:29;58.85;;;13.77;;
65477;SDS011;53678;39.642;22.430;2023-02-28T10:36:02;57.30;;;14.25;;
65477;SDS011;53678;39.642;22.430;2023-02-28T10:38:39;46.58;;;14.77;;
65477;SDS011;53678;39.642;22.430;2023-02-28T10:41:06;59.08;;;19.00;;
65477;SDS011;53678;39.642;22.430;2023-02-28T10:43:40;68.88;;;15.43;;
65477;SDS011;53678;39.642;22.430;2023-02-28T10:48:38;47.75;;;12.30;;
65477;SDS011;53678;39.642;22.430;2023-02-28T10:51:08;53.72;;;14.82;;
65477;SDS011;53678;39.642;22.430;2023-02-28T10:56:16;43.22;;;12.55;;
65477;SDS011;53678;39.642;22.430;2023-02-28T11:04:48;71.53;;;14.98;;
65477;SDS011;53678;39.642;22.430;2023-02-28T11:09:44;51.60;;;14.35;;
65477;SDS011;53678;39.642;22.430;2023-02-28T11:12:22;61.38;;;16.67;;
65477;SDS011;53678;39.642;22.430;2023-02-28T11:14:55;117.82;;;19.52;;
65477;SDS011;53678;39.642;22.430;2023-02-28T11:17:25;65.22;;;15.10;;
65477;SDS011;53678;39.642;22.430;2023-02-28T11:19:58;56.83;;;14.07;;
65477;SDS011;53678;39.642;22.430;2023-02-28T11:22:29;64.97;;;15.68;;
65477;SDS011;53678;39.642;22.430;2023-02-28T11:24:59;62.30;;;14.68;;
65477;SDS011;53678;39.642;22.430;2023-02-28T11:29:57;62.30;;;15.20;;
65477;SDS011;53678;39.642;22.430;2023-02-28T11:32:24;64.68;;;15.73;;
65477;SDS011;53678;39.642;22.430;2023-02-28T11:37:36;52.83;;;15.40;;
65477;SDS011;53678;39.642;22.430;2023-02-28T11:40:05;58.35;;;15.10;;
65477;SDS011;53678;39.642;22.430;2023-02-28T11:56:21;49.42;;;13.57;;
65477;SDS011;53678;39.642;22.430;2023-02-28T11:59:01;56.45;;;14.02;;
65477;SDS011;53678;39.642;22.430;2023-02-28T12:07:11;96.05;;;17.65;;
65477;SDS011;53678;39.642;22.430;2023-02-28T12:26:26;48.08;;;14.23;;
65477;SDS011;53678;39.642;22.430;2023-02-28T12:31:33;50.78;;;15.95;;
65477;SDS011;53678;39.642;22.430;2023-02-28T12:34:06;58.08;;;15.63;;
65477;SDS011;53678;39.642;22.430;2023-02-28T12:36:37;60.25;;;15.60;;
65477;SDS011;53678;39.642;22.430;2023-02-28T12:44:26;50.75;;;15.75;;
65477;SDS011;53678;39.642;22.430;2023-02-28T12:47:18;49.30;;;15.75;;
65477;SDS011;53678;39.642;22.430;2023-02-28T12:50:02;51.92;;;15.60;;
65477;SDS011;53678;39.642;22.430;2023-02-28T12:55:12;55.55;;;15.80;;
65477;SDS011;53678;39.642;22.430;2023-02-28T13:00:36;48.92;;;17.17;;
65477;SDS011;53678;39.642;22.430;2023-02-28T13:09:07;50.53;;;15.30;;
65477;SDS011;53678;39.642;22.430;2023-02-28T13:11:39;52.25;;;15.23;;
65477;SDS011;53678;39.642;22.430;2023-02-28T13:14:19;58.45;;;18.75;;
65477;SDS011;53678;39.642;22.430;2023-02-28T13:16:55;51.97;;;15.48;;
65477;SDS011;53678;39.642;22.430;2023-02-28T13:19:25;31.77;;;9.25;;
65477;SDS011;53678;39.642;22.430;2023-02-28T13:21:56;34.35;;;9.85;;
65477;SDS011;53678;39.642;22.430;2023-02-28T13:29:37;31.63;;;10.07;;
65477;SDS011;53678;39.642;22.430;2023-02-28T13:42:51;29.23;;;7.85;;
65477;SDS011;53678;39.642;22.430;2023-02-28T13:55:49;28.27;;;7.13;;
65477;SDS011;53678;39.642;22.430;2023-02-28T14:03:50;24.00;;;6.40;;
65477;SDS011;53678;39.642;22.430;2023-02-28T14:13:54;28.05;;;7.18;;
65477;SDS011;53678;39.642;22.430;2023-02-28T14:16:21;20.15;;;7.43;;
65477;SDS011;53678;39.642;22.430;2023-02-28T14:18:56;25.10;;;6.85;;
65477;SDS011;53678;39.642;22.430;2023-02-28T14:24:09;22.33;;;7.00;;
65477;SDS011;53678;39.642;22.430;2023-02-28T14:41:32;29.33;;;9.57;;
65477;SDS011;53678;39.642;22.430;2023-02-28T14:44:16;32.30;;;9.98;;
65477;SDS011;53678;39.642;22.430;2023-02-28T14:46:47;30.33;;;10.73;;
65477;SDS011;53678;39.642;22.430;2023-02-28T14:49:30;44.00;;;10.15;;
65477;SDS011;53678;39.642;22.430;2023-02-28T14:52:03;36.27;;;11.13;;
65477;SDS011;53678;39.642;22.430;2023-02-28T14:54:35;37.20;;;10.73;;
65477;SDS011;53678;39.642;22.430;2023-02-28T14:57:02;36.10;;;9.45;;
65477;SDS011;53678;39.642;22.430;2023-02-28T14:59:29;34.00;;;8.32;;
65477;SDS011;53678;39.642;22.430;2023-02-28T15:02:20;34.25;;;10.27;;
65477;SDS011;53678;39.642;22.430;2023-02-28T15:04:58;29.02;;;9.70;;
65477;SDS011;53678;39.642;22.430;2023-02-28T15:07:35;32.75;;;9.50;;
65477;SDS011;53678;39.642;22.430;2023-02-28T15:18:21;37.10;;;12.27;;
65477;SDS011;53678;39.642;22.430;2023-02-28T15:21:06;35.95;;;10.48;;
65477;SDS011;53678;39.642;22.430;2023-02-28T15:23:37;32.95;;;10.20;;
65477;SDS011;53678;39.642;22.430;2023-02-28T15:26:09;29.48;;;10.63;;
65477;SDS011;53678;39.642;22.430;2023-02-28T15:28:39;43.45;;;12.95;;
65477;SDS011;53678;39.642;22.430;2023-02-28T15:31:17;30.63;;;11.13;;
65477;SDS011;53678;39.642;22.430;2023-02-28T15:33:55;37.90;;;12.57;;
65477;SDS011;53678;39.642;22.430;2023-02-28T15:36:24;37.92;;;12.38;;
65477;SDS011;53678;39.642;22.430;2023-02-28T15:38:53;40.58;;;13.75;;
65477;SDS011;53678;39.642;22.430;2023-02-28T15:41:37;41.85;;;13.20;;
65477;SDS011;53678;39.642;22.430;2023-02-28T15:46:54;57.63;;;16.73;;
65477;SDS011;53678;39.642;22.430;2023-02-28T15:50:06;46.15;;;15.68;;
65477;SDS011;53678;39.642;22.430;2023-02-28T15:57:48;50.42;;;17.75;;
65477;SDS011;53678;39.642;22.430;2023-02-28T16:00:20;49.72;;;19.90;;
65477;SDS011;53678;39.642;22.430;2023-02-28T16:02:47;41.97;;;16.30;;
65477;SDS011;53678;39.642;22.430;2023-02-28T16:07:54;40.05;;;14.82;;
65477;SDS011;53678;39.642;22.430;2023-02-28T16:10:21;37.05;;;15.57;;
65477;SDS011;53678;39.642;22.430;2023-02-28T16:12:52;38.05;;;16.38;;
65477;SDS011;53678;39.642;22.430;2023-02-28T16:15:20;47.47;;;18.90;;
65477;SDS011;53678;39.642;22.430;2023-02-28T16:17:49;35.45;;;13.85;;
65477;SDS011;53678;39.642;22.430;2023-02-28T16:20:16;40.67;;;14.55;;
65477;SDS011;53678;39.642;22.430;2023-02-28T16:22:45;42.10;;;13.70;;
65477;SDS011;53678;39.642;22.430;2023-02-28T16:25:22;40.35;;;12.63;;
65477;SDS011;53678;39.642;22.430;2023-02-28T16:27:52;32.65;;;13.13;;
65477;SDS011;53678;39.642;22.430;2023-02-28T16:30:20;36.05;;;13.73;;
65477;SDS011;53678;39.642;22.430;2023-02-28T16:32:49;45.75;;;15.75;;
65477;SDS011;53678;39.642;22.430;2023-02-28T16:35:15;36.72;;;14.95;;
65477;SDS011;53678;39.642;22.430;2023-02-28T16:37:43;37.25;;;15.00;;
65477;SDS011;53678;39.642;22.430;2023-02-28T16:40:17;40.20;;;14.70;;
65477;SDS011;53678;39.642;22.430;2023-02-28T16:42:46;35.78;;;13.63;;
65477;SDS011;53678;39.642;22.430;2023-02-28T16:45:16;36.88;;;16.02;;
65477;SDS011;53678;39.642;22.430;2023-02-28T16:47:47;47.22;;;16.40;;
65477;SDS011;53678;39.642;22.430;2023-02-28T16:50:22;44.67;;;14.23;;
65477;SDS011;53678;39.642;22.430;2023-02-28T16:52:50;39.55;;;16.05;;
65477;SDS011;53678;39.642;22.430;2023-02-28T16:55:20;37.47;;;14.38;;
65477;SDS011;53678;39.642;22.430;2023-02-28T16:57:49;41.80;;;14.52;;
65477;SDS011;53678;39.642;22.430;2023-02-28T17:00:19;35.03;;;11.40;;
65477;SDS011;53678;39.642;22.430;2023-02-28T17:02:45;38.78;;;13.90;;
65477;SDS011;53678;39.642;22.430;2023-02-28T17:05:11;38.65;;;15.75;;
65477;SDS011;53678;39.642;22.430;2023-02-28T17:07:37;41.78;;;16.02;;
65477;SDS011;53678;39.642;22.430;2023-02-28T17:10:24;40.08;;;15.52;;
65477;SDS011;53678;39.642;22.430;2023-02-28T17:12:51;27.48;;;13.57;;
65477;SDS011;53678;39.642;22.430;2023-02-28T17:15:17;49.92;;;15.93;;
65477;SDS011;53678;39.642;22.430;2023-02-28T17:17:45;38.83;;;13.48;;
65477;SDS011;53678;39.642;22.430;2023-02-28T17:20:16;29.90;;;12.55;;
65477;SDS011;53678;39.642;22.430;2023-02-28T17:22:50;40.35;;;13.77;;
65477;SDS011;53678;39.642;22.430;2023-02-28T17:25:16;45.92;;;19.33;;
65477;SDS011;53678;39.642;22.430;2023-02-28T17:27:42;45.92;;;18.52;;
65477;SDS011;53678;39.642;22.430;2023-02-28T17:30:13;38.05;;;17.45;;
65477;SDS011;53678;39.642;22.430;2023-02-28T17:32:40;34.55;;;16.15;;
65477;SDS011;53678;39.642;22.430;2023-02-28T17:35:06;41.03;;;17.08;;
65477;SDS011;53678;39.642;22.430;2023-02-28T17:37:33;38.15;;;19.85;;
65477;SDS011;53678;39.642;22.430;2023-02-28T17:39:58;31.83;;;16.65;;
65477;SDS011;53678;39.642;22.430;2023-02-28T17:42:24;35.33;;;17.42;;
65477;SDS011;53678;39.642;22.430;2023-02-28T17:44:50;29.33;;;16.27;;